Fort Plain, New York
Current Conditions -  °F | °C
As of 1:15 PM on Friday 28 Nov 2014 (Local Time) from KNY0 Reporting Station
Overcast Overcast  
Wind Chill: 10°   Ceiling: 2000
Heat Index: 24°   Visibility: 10mi
Dew Point: 17°   Wind: 18mph
Humidity: 73%   Direction: 270°W
Pressure: 30.1"   Gusts: 25mph
Location:  42.93°N, 74.62°W
Report Text: KNY0 281815Z AUTO 27016G22KT 10SM OVC020 M04/M08 A3010 RMK AO2 T10431084
Loading
Personal Weather Stations






























Interactive Weather Map New forecast layout! Learn more

10-Day Weather Forecast

Advertisements
Track Severe Weather on mobile